Tan-shui, Taiwan
Current Conditions -  °F | °C
As of 11:00 PM on Friday 19 Dec 2014 (Local Time) from RCSS Reporting Station
Light Rain Light Rain  
Wind Chill: 59°   Ceiling: 2500
Heat Index: 59°   Visibility: 6mi
Dew Point: 55°   Wind: 8mph
Humidity: 88%   Direction: 270°W
Pressure: 30.18"   Gusts: NA
Location:  25.17°N, 121.43°E
Report Text: RCSS 191500Z 27007KT 250V310 9999 -RA FEW008 BKN025 BKN06015/13 Q1022 NOSIG RMK A3020 RA AMT 1.0MM
Loading
Personal Weather Stations






























Interactive Weather Map New forecast layout! Learn more

10-Day Weather Forecast

Advertisements
Track Severe Weather on mobile